Time;durP1;ratioP1;P1;durP2;ratioP2;P2;SDS_P1;SDS_P2;PMS_P1;PMS_P2;Temp;Humidity;BMP_temperature;BMP_pressure;BME280_temperature;BME280_humidity;BME280_pressure;Samples;Min_cycle;Max_cycle;Signal;HPM_P1;HPM_P2
2021/03/27 00:01:43;;;;;;;4.68;1.40;;;7.30;99.90;;;;;;5084075;28;20404;-55
2021/03/27 00:04:19;;;;;;;6.20;1.38;;;7.30;99.90;;;;;;5069496;28;20135;-55
2021/03/27 00:07:07;;;;;;;3.78;1.00;;;7.20;99.90;;;;;;5069383;28;20052;-55
2021/03/27 00:10:02;;;;;;;4.45;0.90;;;7.10;99.90;;;;;;5069384;28;20052;-55
2021/03/27 00:12:36;;;;;;;2.92;1.00;;;6.90;99.90;;;;;;5069164;28;20079;-55
2021/03/27 00:15:10;;;;;;;4.20;0.88;;;6.90;99.90;;;;;;5069406;28;20087;-55
2021/03/27 00:17:44;;;;;;;5.55;1.10;;;6.70;99.90;;;;;;5069302;28;20040;-55
2021/03/27 00:20:20;;;;;;;1.45;0.90;;;6.90;99.90;;;;;;5055367;28;20053;-55
2021/03/27 00:23:12;;;;;;;2.00;1.00;;;6.80;99.90;;;;;;5049425;28;20119;-55
2021/03/27 00:25:44;;;;;;;6.07;0.82;;;6.70;99.90;;;;;;5046364;28;20419;-55
2021/03/27 00:28:24;;;;;;;1.95;0.80;;;6.60;99.90;;;;;;5049278;28;20057;-54
2021/03/27 00:31:12;;;;;;;2.55;0.75;;;6.60;99.90;;;;;;5049302;28;20184;-55
2021/03/27 00:33:44;;;;;;;3.78;0.90;;;6.50;99.90;;;;;;5049162;28;20041;-55
2021/03/27 00:36:19;;;;;;;3.33;0.80;;;6.50;99.90;;;;;;5049049;28;20053;-54
2021/03/27 00:38:55;;;;;;;2.38;1.10;;;6.50;99.90;;;;;;5049313;28;20045;-55
2021/03/27 00:41:40;;;;;;;3.38;0.80;;;6.40;99.90;;;;;;5083727;28;20054;-55
2021/03/27 00:44:11;;;;;;;3.55;0.63;;;6.40;99.90;;;;;;5116097;28;20058;-54
2021/03/27 00:46:39;;;;;;;3.90;1.27;;;6.50;99.90;;;;;;5115575;28;20061;-55
2021/03/27 00:49:11;;;;;;;2.35;1.20;;;6.40;99.90;;;;;;5115692;28;20130;-55
2021/03/27 00:51:43;;;;;;;2.40;1.10;;;6.50;99.90;;;;;;5115631;28;20044;-55
2021/03/27 00:54:45;;;;;;;3.47;1.00;;;6.40;99.90;;;;;;5115635;28;20071;-54
2021/03/27 00:57:15;;;;;;;;;;;6.40;99.90;;;;;;5115819;28;20041;-54
2021/03/27 01:00:02;;;;;;;6.27;1.73;;;6.40;99.90;;;;;;5115785;28;19927;-55
2021/03/27 01:02:30;;;;;;;3.50;1.25;;;6.30;99.90;;;;;;5115408;28;20489;-55
2021/03/27 01:04:58;;;;;;;4.43;1.35;;;6.40;99.90;;;;;;5115520;28;20035;-55
2021/03/27 01:07:25;;;;;;;6.55;1.58;;;6.40;99.90;;;;;;5115312;28;20043;-55
2021/03/27 01:10:04;;;;;;;2.85;1.27;;;6.40;99.90;;;;;;5115181;28;20098;-55
2021/03/27 01:12:32;;;;;;;2.50;0.98;;;6.40;99.90;;;;;;5115423;28;20066;-54
2021/03/27 01:15:20;;;;;;;5.85;1.58;;;6.40;99.90;;;;;;5115191;28;20073;-55
2021/03/27 01:17:49;;;;;;;4.55;0.90;;;6.50;99.90;;;;;;5032250;28;20128;-55
2021/03/27 01:20:15;;;;;;;;;;;6.50;99.90;;;;;;5046924;28;20059;-55
2021/03/27 01:22:43;;;;;;;3.60;1.27;;;6.40;99.90;;;;;;5052276;28;20011;-55
2021/03/27 01:25:10;;;;;;;2.22;1.15;;;6.40;99.90;;;;;;5035667;28;20133;-54
2021/03/27 01:27:50;;;;;;;5.63;1.40;;;6.50;99.90;;;;;;5051920;28;20049;-54
2021/03/27 01:30:19;;;;;;;;;;;6.40;99.90;;;;;;5052724;28;20067;-55
2021/03/27 01:32:53;;;;;;;2.17;1.08;;;6.40;99.90;;;;;;5051996;28;19916;-55
2021/03/27 01:35:33;;;;;;;2.92;1.02;;;6.40;99.90;;;;;;5052006;28;20494;-55
2021/03/27 01:38:22;;;;;;;1.25;0.90;;;6.40;99.90;;;;;;5052001;28;20044;-55
2021/03/27 01:40:51;;;;;;;3.88;1.00;;;6.40;99.90;;;;;;5051735;28;20491;-54
2021/03/27 01:43:32;;;;;;;5.13;0.98;;;6.40;99.90;;;;;;5051819;28;20536;-54
2021/03/27 01:46:31;;;;;;;4.40;1.10;;;6.30;99.90;;;;;;5051666;28;20049;-54
2021/03/27 01:49:34;;;;;;;5.40;1.40;;;6.30;99.90;;;;;;5051622;28;20526;-55
2021/03/27 01:52:17;;;;;;;4.38;1.13;;;6.30;99.90;;;;;;5051916;28;20040;-55
2021/03/27 01:55:05;;;;;;;2.88;0.80;;;6.40;99.90;;;;;;5086804;27;20129;-54
2021/03/27 01:57:54;;;;;;;1.75;1.05;;;6.30;99.90;;;;;;5134706;27;20066;-55
2021/03/27 02:00:30;;;;;;;4.55;1.13;;;6.30;99.90;;;;;;5116091;27;20416;-55
2021/03/27 02:03:04;;;;;;;2.10;1.00;;;6.20;99.90;;;;;;5134803;27;20088;-55
2021/03/27 02:05:34;;;;;;;6.95;0.93;;;6.20;99.90;;;;;;5134912;27;20043;-54
2021/03/27 02:08:31;;;;;;;3.00;1.20;;;6.20;99.90;;;;;;5134694;27;20057;-54
2021/03/27 02:11:07;;;;;;;3.35;1.10;;;6.20;99.90;;;;;;5134918;27;20047;-55
2021/03/27 02:13:50;;;;;;;2.42;0.95;;;6.20;99.90;;;;;;5134554;27;20054;-54
2021/03/27 02:16:34;;;;;;;8.20;1.00;;;6.20;99.90;;;;;;5134448;27;20039;-54
2021/03/27 02:19:17;;;;;;;2.67;1.02;;;6.20;99.90;;;;;;5134483;27;20134;-54
2021/03/27 02:21:51;;;;;;;4.30;1.30;;;6.20;99.90;;;;;;5134720;27;20082;-54
2021/03/27 02:24:35;;;;;;;4.57;1.30;;;6.20;99.90;;;;;;5116178;27;20035;-54
2021/03/27 02:27:10;;;;;;;1.67;0.80;;;6.20;99.90;;;;;;5134436;27;20043;-54
2021/03/27 02:29:48;;;;;;;3.90;1.20;;;6.20;99.90;;;;;;5134374;27;20049;-54
2021/03/27 02:32:38;;;;;;;4.40;1.50;;;6.20;99.90;;;;;;5134351;27;20055;-53
2021/03/27 02:35:42;;;;;;;4.40;1.63;;;6.20;99.90;;;;;;5134058;27;20039;-54
2021/03/27 02:38:34;;;;;;;2.67;1.77;;;6.20;99.90;;;;;;5133926;27;20861;-54
2021/03/27 02:41:37;;;;;;;3.92;1.90;;;6.20;99.90;;;;;;5134031;27;20043;-54
2021/03/27 02:44:18;;;;;;;3.00;2.15;;;6.20;99.90;;;;;;5134235;27;20124;-54
2021/03/27 02:46:46;;;;;;;2.90;1.85;;;6.20;99.90;;;;;;5133906;27;20043;-54
2021/03/27 02:49:24;;;;;;;4.43;3.00;;;6.20;99.90;;;;;;5133917;27;20047;-54
2021/03/27 02:52:11;;;;;;;3.85;1.95;;;6.20;99.90;;;;;;5134204;27;20296;-54
2021/03/27 02:54:55;;;;;;;3.65;2.30;;;6.20;99.90;;;;;;5134051;27;20548;-54
2021/03/27 02:57:38;;;;;;;7.18;2.25;;;6.20;99.90;;;;;;5133716;27;20110;-54
2021/03/27 03:00:19;;;;;;;3.22;2.20;;;6.20;99.90;;;;;;5133563;27;20043;-54
2021/03/27 03:02:58;;;;;;;4.53;2.60;;;6.20;99.90;;;;;;5133864;27;20050;-54
2021/03/27 03:05:39;;;;;;;3.83;2.70;;;6.20;99.90;;;;;;5133437;27;20035;-54
2021/03/27 03:08:33;;;;;;;7.18;3.83;;;6.20;99.90;;;;;;5133427;27;20400;-54
2021/03/27 03:11:11;;;;;;;5.78;4.13;;;6.20;99.90;;;;;;5133666;27;20104;-55
2021/03/27 03:14:06;;;;;;;8.15;4.55;;;6.20;99.90;;;;;;5133514;27;20472;-55
2021/03/27 03:16:31;;;;;;;8.55;4.60;;;6.20;99.90;;;;;;5133357;27;20039;-55
2021/03/27 03:19:46;;;;;;;5.72;4.63;;;6.20;99.90;;;;;;5133289;27;20112;-55
2021/03/27 03:23:00;;;;;;;8.93;5.13;;;6.30;99.90;;;;;;5070095;28;20045;-55
2021/03/27 03:25:29;;;;;;;14.95;5.68;;;6.30;99.90;;;;;;5067129;28;20171;-55
2021/03/27 03:28:24;;;;;;;8.48;5.72;;;6.40;99.90;;;;;;5069831;28;20055;-54
2021/03/27 03:31:05;;;;;;;15.57;6.55;;;6.40;99.90;;;;;;5069821;28;20049;-55
2021/03/27 03:33:49;;;;;;;15.65;6.22;;;6.40;99.90;;;;;;5069795;28;20055;-55
2021/03/27 03:36:24;;;;;;;9.80;6.65;;;6.40;99.90;;;;;;5069883;28;20094;-54
2021/03/27 03:39:23;;;;;;;16.75;6.00;;;6.40;99.90;;;;;;5053218;28;20044;-55
2021/03/27 03:41:51;;;;;;;17.17;6.25;;;6.40;99.90;;;;;;5069722;28;20049;-55
2021/03/27 03:44:42;;;;;;;15.33;7.00;;;6.40;99.90;;;;;;5069750;28;20044;-55
2021/03/27 03:47:32;;;;;;;8.98;6.20;;;6.40;99.90;;;;;;5069558;28;20084;-55
2021/03/27 03:50:15;;;;;;;17.47;6.90;;;6.40;99.90;;;;;;5069583;28;20049;-55
2021/03/27 03:53:19;;;;;;;14.77;6.63;;;6.40;99.90;;;;;;5094212;28;20334;-55
2021/03/27 03:56:00;;;;;;;17.65;5.97;;;6.30;99.90;;;;;;5069470;28;20502;-54
2021/03/27 03:58:57;;;;;;;19.67;6.20;;;6.30;99.90;;;;;;5069504;28;20052;-55
2021/03/27 04:01:31;;;;;;;13.07;5.90;;;6.30;99.90;;;;;;5069532;28;20045;-55
2021/03/27 04:04:24;;;;;;;19.80;5.95;;;6.20;99.90;;;;;;5069468;28;20051;-55
2021/03/27 04:07:21;;;;;;;11.35;5.10;;;6.20;99.90;;;;;;5069437;28;20565;-55
2021/03/27 04:09:49;;;;;;;15.80;5.13;;;6.20;99.90;;;;;;4974187;28;20568;-55
2021/03/27 04:12:30;;;;;;;17.40;5.10;;;6.20;99.90;;;;;;4990038;28;20042;-55
2021/03/27 04:15:17;;;;;;;18.45;5.10;;;6.10;99.90;;;;;;4990022;28;20050;-55
2021/03/27 04:18:04;;;;;;;12.27;4.50;;;6.10;99.90;;;;;;4992984;28;20042;-55
2021/03/27 04:20:52;;;;;;;9.98;3.67;;;6.10;99.90;;;;;;4993935;28;20483;-55
2021/03/27 04:23:38;;;;;;;15.30;3.30;;;6.10;99.90;;;;;;4994019;28;20157;-55
2021/03/27 04:26:06;;;;;;;14.63;3.30;;;6.10;99.90;;;;;;4993770;28;20077;-55
2021/03/27 04:29:04;;;;;;;17.05;2.90;;;6.10;99.90;;;;;;4993892;28;20069;-55
2021/03/27 04:31:59;;;;;;;13.20;3.45;;;6.00;99.90;;;;;;4997530;28;20050;-55
2021/03/27 04:34:46;;;;;;;9.63;2.70;;;6.00;99.90;;;;;;5052902;28;20056;-55
2021/03/27 04:37:26;;;;;;;7.68;2.70;;;5.90;99.90;;;;;;5053019;28;20041;-53
2021/03/27 04:39:57;;;;;;;15.43;3.03;;;5.80;99.90;;;;;;5052899;28;20049;-55
2021/03/27 04:42:32;;;;;;;14.32;3.78;;;5.70;99.90;;;;;;5052935;28;20041;-55
2021/03/27 04:45:16;;;;;;;12.88;3.10;;;5.70;99.90;;;;;;5053027;28;20037;-55
2021/03/27 04:47:46;;;;;;;16.90;4.13;;;5.70;99.90;;;;;;5115711;28;20043;-55
2021/03/27 04:50:14;;;;;;;12.73;3.00;;;5.60;99.90;;;;;;5115690;28;20172;-55
2021/03/27 04:52:53;;;;;;;12.73;3.13;;;5.60;99.90;;;;;;5115657;28;20052;-55
2021/03/27 04:55:33;;;;;;;15.53;3.03;;;5.50;99.90;;;;;;5115744;28;20443;-55
2021/03/27 04:58:26;;;;;;;15.32;3.85;;;5.50;99.90;;;;;;5115432;28;20297;-55
2021/03/27 05:01:11;;;;;;;15.20;3.00;;;5.40;99.90;;;;;;5115385;28;20134;-55
2021/03/27 05:04:01;;;;;;;13.38;2.88;;;5.40;99.90;;;;;;5115604;28;20453;-55
2021/03/27 05:06:35;;;;;;;13.75;2.55;;;5.40;99.90;;;;;;5115319;28;20059;-55
2021/03/27 05:09:29;;;;;;;14.00;3.83;;;5.50;99.90;;;;;;5115481;28;20133;-55
2021/03/27 05:12:26;;;;;;;15.63;2.75;;;5.50;99.90;;;;;;5115306;27;20042;-55
2021/03/27 05:15:12;;;;;;;20.70;3.67;;;5.60;99.90;;;;;;5115258;28;20048;-55
2021/03/27 05:17:44;;;;;;;15.57;3.38;;;5.60;99.90;;;;;;5115017;28;20092;-54
2021/03/27 05:20:33;;;;;;;14.68;3.10;;;5.70;99.90;;;;;;5128952;27;20047;-55
2021/03/27 05:23:05;;;;;;;14.88;2.22;;;5.70;99.90;;;;;;5135875;27;20036;-55
2021/03/27 05:25:43;;;;;;;18.23;3.55;;;5.80;99.90;;;;;;5135428;27;20092;-55
2021/03/27 05:28:25;;;;;;;11.95;2.42;;;5.80;99.90;;;;;;5134287;27;20147;-55
2021/03/27 05:31:20;;;;;;;8.07;1.88;;;5.70;99.90;;;;;;5135440;27;20047;-55
2021/03/27 05:34:23;;;;;;;19.00;2.92;;;5.80;99.90;;;;;;5135227;27;20507;-55
2021/03/27 05:37:10;;;;;;;13.43;2.70;;;5.90;99.90;;;;;;5135406;27;20126;-55
2021/03/27 05:39:58;;;;;;;13.75;2.40;;;6.00;99.90;;;;;;5135376;27;20138;-55
2021/03/27 05:42:41;;;;;;;10.80;2.63;;;6.00;99.90;;;;;;5135211;27;20035;-55
2021/03/27 05:45:50;;;;;;;13.63;2.88;;;6.10;99.90;;;;;;5135290;27;20042;-55
2021/03/27 05:48:47;;;;;;;9.70;3.10;;;6.10;99.90;;;;;;5135071;27;20455;-55
2021/03/27 05:51:56;;;;;;;9.35;2.40;;;6.10;99.90;;;;;;5135166;27;20047;-55
2021/03/27 05:54:21;;;;;;;9.27;2.95;;;6.00;99.90;;;;;;5135083;27;20503;-55
2021/03/27 05:57:13;;;;;;;7.50;2.30;;;5.90;99.90;;;;;;5134795;27;20126;-55
2021/03/27 06:00:09;;;;;;;9.32;2.25;;;6.00;99.90;;;;;;5135050;27;20068;-54
2021/03/27 06:02:49;;;;;;;9.98;2.35;;;5.80;99.90;;;;;;5134959;27;20046;-55
2021/03/27 06:05:38;;;;;;;10.90;2.70;;;5.80;99.90;;;;;;5134634;27;20039;-55
2021/03/27 06:08:17;;;;;;;11.75;3.00;;;5.70;99.90;;;;;;5134916;27;20047;-55
2021/03/27 06:11:06;;;;;;;10.27;2.77;;;5.80;99.90;;;;;;5134984;27;20066;-55
2021/03/27 06:13:50;;;;;;;12.27;3.03;;;5.80;99.90;;;;;;5134684;27;20460;-54
2021/03/27 06:16:24;;;;;;;8.02;3.08;;;5.70;99.90;;;;;;5134823;27;20043;-55
2021/03/27 06:19:08;;;;;;;11.57;2.22;;;5.70;99.90;;;;;;5134418;27;20074;-55
2021/03/27 06:22:06;;;;;;;6.40;2.00;;;5.60;99.90;;;;;;5134245;27;20058;-55
2021/03/27 06:25:05;;;;;;;8.77;1.77;;;5.60;99.90;;;;;;5134505;27;20047;-55
2021/03/27 06:27:31;;;;;;;5.45;1.70;;;5.70;99.90;;;;;;5134410;27;20099;-55
2021/03/27 06:30:20;;;;;;;9.18;2.25;;;5.60;99.90;;;;;;5134230;27;20046;-55
2021/03/27 06:33:05;;;;;;;6.25;1.85;;;5.70;99.90;;;;;;5134029;27;20050;-55
2021/03/27 06:35:54;;;;;;;6.93;1.80;;;5.60;99.90;;;;;;5134331;27;20042;-55
2021/03/27 06:38:48;;;;;;;7.72;1.98;;;5.60;99.90;;;;;;5134021;27;20051;-56
2021/03/27 06:41:47;;;;;;;7.60;2.17;;;5.50;99.90;;;;;;5133785;27;20039;-55
2021/03/27 06:44:41;;;;;;;8.95;1.85;;;5.60;99.90;;;;;;5134279;27;20540;-55
2021/03/27 06:47:16;;;;;;;13.75;2.92;;;5.50;99.90;;;;;;5133805;27;20049;-55
2021/03/27 06:50:12;;;;;;;10.35;2.60;;;5.50;99.90;;;;;;5134006;27;20115;-55
2021/03/27 06:53:06;;;;;;;8.98;2.70;;;5.70;99.90;;;;;;5133890;27;20042;-55
2021/03/27 06:56:09;;;;;;;10.63;2.30;;;5.70;99.90;;;;;;5133598;27;20067;-55
2021/03/27 06:58:58;;;;;;;11.63;2.60;;;5.70;99.90;;;;;;5070219;28;20060;-55
2021/03/27 07:01:23;;;;;;;12.02;2.28;;;5.60;99.90;;;;;;5070273;28;20056;-55
2021/03/27 07:03:52;;;;;;;14.82;2.80;;;5.70;99.90;;;;;;5070677;28;20543;-55
2021/03/27 07:06:32;;;;;;;15.80;3.15;;;5.90;99.90;;;;;;5070188;28;20130;-55
2021/03/27 07:08:57;;;;;;;;;;;5.90;99.90;;;;;;5053809;28;20167;-55
2021/03/27 07:11:57;;;;;;;10.80;2.50;;;6.00;99.90;;;;;;5070281;28;20030;-55
2021/03/27 07:14:41;;;;;;;13.25;2.53;;;6.00;99.90;;;;;;5070018;28;20179;-55
2021/03/27 07:17:36;;;;;;;8.90;1.92;;;6.00;99.90;;;;;;5070197;28;20110;-55
2021/03/27 07:20:09;;;;;;;13.63;2.60;;;5.90;99.90;;;;;;5069798;28;20135;-55
2021/03/27 07:22:50;;;;;;;15.25;2.80;;;5.90;99.90;;;;;;5069908;28;20048;-55
2021/03/27 07:25:41;;;;;;;12.48;2.72;;;5.90;99.90;;;;;;5069880;28;20568;-55
2021/03/27 07:28:31;;;;;;;11.30;2.45;;;6.00;99.90;;;;;;5069806;28;20518;-55
2021/03/27 07:31:17;;;;;;;9.27;2.17;;;6.10;99.90;;;;;;5069747;28;20113;-55
2021/03/27 07:34:25;;;;;;;17.88;2.45;;;6.30;99.90;;;;;;5069779;28;20174;-55
2021/03/27 07:37:28;;;;;;;14.68;2.50;;;6.40;99.90;;;;;;5133072;27;20484;-55
2021/03/27 07:40:29;;;;;;;17.17;3.92;;;6.50;99.90;;;;;;5133026;27;20046;-55
2021/03/27 07:43:16;;;;;;;13.63;2.92;;;6.60;99.90;;;;;;5069597;28;20060;-55
2021/03/27 07:45:57;;;;;;;15.52;3.75;;;6.60;99.90;;;;;;5069544;28;20044;-56
2021/03/27 07:48:59;;;;;;;16.50;3.28;;;6.80;99.90;;;;;;5069569;28;20048;-55
2021/03/27 07:51:40;;;;;;;22.98;3.55;;;7.00;99.90;;;;;;5069135;28;20106;-55
2021/03/27 07:54:34;;;;;;;15.27;3.20;;;7.00;99.90;;;;;;5069598;28;20137;-55
2021/03/27 07:57:25;;;;;;;11.50;3.33;;;7.00;99.90;;;;;;5069443;28;20041;-55
2021/03/27 08:00:31;;;;;;;23.58;3.30;;;7.00;99.90;;;;;;5069527;28;20166;-56
2021/03/27 08:03:35;;;;;;;19.08;3.30;;;7.00;99.90;;;;;;5069662;28;20397;-56
2021/03/27 08:06:19;;;;;;;19.08;3.72;;;7.00;99.90;;;;;;5069358;28;20076;-55
2021/03/27 08:08:53;;;;;;;18.73;3.28;;;6.90;99.90;;;;;;5069669;28;20052;-55
2021/03/27 08:11:42;;;;;;;25.70;3.75;;;7.00;99.90;;;;;;5069433;28;20052;-55
2021/03/27 08:14:28;;;;;;;15.25;3.83;;;7.00;99.90;;;;;;5052540;28;20040;-56
2021/03/27 08:17:33;;;;;;;14.75;3.53;;;7.10;99.90;;;;;;5069222;28;20443;-55
2021/03/27 08:20:34;;;;;;;19.65;4.28;;;7.20;99.90;;;;;;5105118;28;20062;-55
2021/03/27 08:23:07;;;;;;;23.92;3.47;;;7.40;99.90;;;;;;5132482;28;20391;-56
2021/03/27 08:26:03;;;;;;;16.60;2.95;;;7.80;99.90;;;;;;5132595;28;20047;-56
2021/03/27 08:28:44;;;;;;;16.20;2.75;;;7.90;99.90;;;;;;5132456;28;20043;-55
2021/03/27 08:31:29;;;;;;;23.83;3.78;;;7.90;99.90;;;;;;5113886;28;20507;-55
2021/03/27 08:34:10;;;;;;;20.05;3.85;;;7.60;99.90;;;;;;5132495;28;20047;-55
2021/03/27 08:37:14;;;;;;;16.52;3.10;;;7.60;99.90;;;;;;5132300;28;20507;-55
2021/03/27 08:40:05;;;;;;;12.20;2.88;;;7.50;99.90;;;;;;5132297;28;20039;-55
2021/03/27 08:42:55;;;;;;;14.23;2.83;;;7.40;99.90;;;;;;5132541;28;20495;-56
2021/03/27 08:45:53;;;;;;;15.70;2.88;;;7.50;99.80;;;;;;5069072;28;20117;-56
2021/03/27 08:48:30;;;;;;;21.95;3.03;;;7.30;99.80;;;;;;4989665;28;20046;-55
2021/03/27 08:51:09;;;;;;;18.10;2.75;;;7.20;99.90;;;;;;4990016;28;20162;-56
2021/03/27 08:53:52;;;;;;;15.10;3.80;;;6.90;99.90;;;;;;4989730;28;20046;-56
2021/03/27 08:56:41;;;;;;;14.15;2.22;;;6.60;99.90;;;;;;4989700;28;20054;-56
2021/03/27 08:59:45;;;;;;;9.35;2.03;;;6.30;99.90;;;;;;4951095;29;20043;-56
2021/03/27 09:02:26;;;;;;;14.68;1.90;;;6.30;99.90;;;;;;4894339;29;20095;-56
2021/03/27 09:05:16;;;;;;;13.00;2.33;;;6.60;99.90;;;;;;4897407;29;20076;-56
2021/03/27 09:08:19;;;;;;;13.13;2.45;;;7.30;99.90;;;;;;4897472;29;20052;-55
2021/03/27 09:11:14;;;;;;;11.13;2.33;;;7.90;99.90;;;;;;4897207;29;20108;-56
2021/03/27 09:14:03;;;;;;;16.42;3.08;;;8.60;99.90;;;;;;4897460;29;20088;-55
2021/03/27 09:16:36;;;;;;;13.25;3.05;;;8.90;99.90;;;;;;4897227;29;20048;-56
2021/03/27 09:19:30;;;;;;;10.98;2.78;;;9.30;99.90;;;;;;4897130;29;20064;-56
2021/03/27 09:22:24;;;;;;;10.05;2.53;;;9.60;98.70;;;;;;4908913;29;20058;-56
2021/03/27 09:25:11;;;;;;;16.42;3.05;;;10.10;97.30;;;;;;4945839;29;20052;-56
2021/03/27 09:28:03;;;;;;;13.02;2.28;;;10.30;97.00;;;;;;4954010;29;20497;-56
2021/03/27 09:30:40;;;;;;;13.18;2.17;;;10.20;95.20;;;;;;4954241;28;20055;-55
2021/03/27 09:33:26;;;;;;;13.45;3.25;;;10.40;96.10;;;;;;4953883;28;20103;-56
2021/03/27 09:36:12;;;;;;;12.25;2.70;;;10.10;96.30;;;;;;4983659;28;20057;-56
2021/03/27 09:38:45;;;;;;;12.90;3.10;;;9.40;96.40;;;;;;5054735;27;20476;-56
2021/03/27 09:41:39;;;;;;;19.90;3.25;;;8.90;96.70;;;;;;5135157;27;20167;-56
2021/03/27 09:44:25;;;;;;;11.85;2.28;;;8.50;98.00;;;;;;5135057;27;20051;-56
2021/03/27 09:47:14;;;;;;;9.75;3.03;;;8.50;98.60;;;;;;5135056;27;20043;-56
2021/03/27 09:49:59;;;;;;;13.07;2.65;;;8.50;99.40;;;;;;5151307;27;20058;-55
2021/03/27 09:52:51;;;;;;;11.43;2.67;;;8.50;95.90;;;;;;5134963;27;20042;-56
2021/03/27 09:55:42;;;;;;;12.68;2.33;;;8.20;96.00;;;;;;5134964;27;20039;-55
2021/03/27 09:58:29;;;;;;;13.95;2.92;;;8.20;95.90;;;;;;5151082;27;20123;-56
2021/03/27 10:01:13;;;;;;;15.02;2.65;;;8.10;97.70;;;;;;5155742;27;20047;-56
2021/03/27 10:03:52;;;;;;;9.38;2.08;;;8.60;96.40;;;;;;5155432;27;20035;-56
2021/03/27 10:06:45;;;;;;;17.05;3.08;;;8.90;94.10;;;;;;5155429;27;20064;-56
2021/03/27 10:09:32;;;;;;;9.57;2.28;;;9.20;94.10;;;;;;5155124;27;20384;-56
2021/03/27 10:12:16;;;;;;;14.38;2.10;;;9.50;95.90;;;;;;5138632;27;20468;-56
2021/03/27 10:14:56;;;;;;;11.07;2.45;;;9.20;94.00;;;;;;5154458;27;20041;-55
2021/03/27 10:17:34;;;;;;;11.60;2.45;;;9.00;94.90;;;;;;5155227;27;20577;-55
2021/03/27 10:20:20;;;;;;;10.85;2.30;;;8.60;95.90;;;;;;5155063;27;20050;-55
2021/03/27 10:23:27;;;;;;;18.08;2.55;;;8.60;97.50;;;;;;5154920;27;20041;-55
2021/03/27 10:26:08;;;;;;;13.27;3.15;;;8.40;95.50;;;;;;5154818;27;20035;-56
2021/03/27 10:28:42;;;;;;;12.38;2.53;;;8.50;94.00;;;;;;5155337;27;20053;-55
2021/03/27 10:31:16;;;;;;;13.63;2.78;;;8.70;95.00;;;;;;5154910;27;20066;-56
2021/03/27 10:34:17;;;;;;;16.25;1.98;;;8.50;95.80;;;;;;5154768;27;20047;-55
2021/03/27 10:37:13;;;;;;;13.75;2.85;;;8.50;94.40;;;;;;5070506;28;20048;-56
2021/03/27 10:40:18;;;;;;;10.07;2.10;;;8.40;94.20;;;;;;5070567;28;20195;-56
2021/03/27 10:43:13;;;;;;;11.38;2.20;;;8.30;94.20;;;;;;5069379;28;20487;-55
2021/03/27 10:46:00;;;;;;;19.38;3.50;;;8.30;95.70;;;;;;5070496;28;20059;-55
2021/03/27 10:48:41;;;;;;;13.52;2.17;;;8.50;94.50;;;;;;5070472;28;20045;-55
2021/03/27 10:51:28;;;;;;;10.10;2.88;;;8.40;94.50;;;;;;5070446;28;20051;-55
2021/03/27 10:54:10;;;;;;;18.13;3.47;;;8.20;96.10;;;;;;5070364;28;20132;-55
2021/03/27 10:57:23;;;;;;;11.02;2.25;;;7.90;97.60;;;;;;5070503;28;20037;-55
2021/03/27 11:00:02;;;;;;;13.50;4.18;;;7.60;97.70;;;;;;5010788;28;20053;-56
2021/03/27 11:02:52;;;;;;;12.83;2.20;;;7.50;98.20;;;;;;5010521;28;20116;-55
2021/03/27 11:05:44;;;;;;;9.20;1.77;;;7.40;98.30;;;;;;5010879;28;20526;-55
2021/03/27 11:08:30;;;;;;;12.65;2.08;;;7.30;97.30;;;;;;5010553;28;20455;-55
2021/03/27 11:11:09;;;;;;;14.55;2.00;;;7.30;98.50;;;;;;5010795;28;20133;-55
2021/03/27 11:13:35;;;;;;;16.50;2.38;;;7.30;98.40;;;;;;5067846;28;20040;-56
2021/03/27 11:16:31;;;;;;;11.60;2.28;;;7.40;99.60;;;;;;5090248;28;20467;-55
2021/03/27 11:19:22;;;;;;;14.63;2.70;;;7.40;99.60;;;;;;5090309;28;20122;-56
2021/03/27 11:22:03;;;;;;;12.68;2.63;;;7.40;99.90;;;;;;5090134;28;20059;-55
2021/03/27 11:24:55;;;;;;;12.68;2.63;;;7.00;99.90;;;;;;5090170;28;20126;-55
2021/03/27 11:27:43;;;;;;;9.90;1.73;;;6.70;99.90;;;;;;5090183;28;20078;-56
2021/03/27 11:30:15;;;;;;;7.35;1.70;;;6.50;99.90;;;;;;5090107;28;20047;-55
2021/03/27 11:32:47;;;;;;;9.35;2.35;;;6.70;99.90;;;;;;5090056;28;20044;-55
2021/03/27 11:35:38;;;;;;;12.05;2.13;;;6.70;99.90;;;;;;5099099;27;20492;-55
2021/03/27 11:38:32;;;;;;;9.82;2.60;;;6.90;99.90;;;;;;5133044;27;20039;-55
2021/03/27 11:41:27;;;;;;;7.03;2.25;;;6.90;99.90;;;;;;5132958;27;20054;-55
2021/03/27 11:44:01;;;;;;;7.28;1.70;;;6.70;99.90;;;;;;5129952;27;20093;-54
2021/03/27 11:46:36;;;;;;;6.78;1.70;;;6.20;99.90;;;;;;5132750;27;20062;-55
2021/03/27 11:49:02;;;;;;;12.68;1.63;;;5.90;99.90;;;;;;5132881;27;20075;-55
2021/03/27 11:52:12;;;;;;;8.27;1.42;;;5.80;99.90;;;;;;5132839;27;20074;-55
2021/03/27 11:54:55;;;;;;;4.95;1.00;;;5.70;99.90;;;;;;5069510;28;20490;-55
2021/03/27 11:57:47;;;;;;;10.75;1.50;;;5.70;99.90;;;;;;5069343;28;20049;-55
2021/03/27 12:03:37;;;;;;;8.35;1.67;;;6.10;99.90;;;;;;5069532;28;20064;-55
2021/03/27 12:06:17;;;;;;;5.57;1.10;;;6.10;99.90;;;;;;5069405;28;20406;-55
2021/03/27 12:09:22;;;;;;;8.00;1.65;;;6.10;99.90;;;;;;5069446;28;20131;-55
2021/03/27 12:12:06;;;;;;;3.38;0.80;;;5.80;99.90;;;;;;5069461;28;20549;-55
2021/03/27 12:14:53;;;;;;;2.10;0.90;;;5.80;99.90;;;;;;5069419;28;20099;-55
2021/03/27 12:17:56;;;;;;;3.67;0.90;;;5.70;99.90;;;;;;5069305;28;20084;-55
2021/03/27 12:20:38;;;;;;;5.63;1.20;;;5.70;99.90;;;;;;5064124;28;20556;-55
2021/03/27 12:23:48;;;;;;;3.72;0.95;;;6.10;99.90;;;;;;5068256;28;20059;-55
2021/03/27 12:26:32;;;;;;;7.93;1.60;;;6.20;99.90;;;;;;5009528;28;20037;-55
2021/03/27 12:29:14;;;;;;;11.75;1.63;;;6.40;99.90;;;;;;5009790;28;20559;-55
2021/03/27 12:31:52;;;;;;;8.88;1.88;;;6.90;99.90;;;;;;5054725;28;20094;-56
2021/03/27 12:34:59;;;;;;;7.03;1.67;;;7.50;99.90;;;;;;5069199;28;20059;-55
2021/03/27 12:37:53;;;;;;;11.75;1.98;;;7.70;99.90;;;;;;4990602;28;20054;-55
2021/03/27 12:40:44;;;;;;;6.68;2.10;;;8.30;99.90;;;;;;4954917;29;20448;-56
2021/03/27 12:43:17;;;;;;;14.65;2.25;;;8.10;99.90;;;;;;4935609;29;20304;-55
2021/03/27 12:45:49;;;;;;;20.30;3.25;;;8.10;99.90;;;;;;4935680;29;20048;-56
2021/03/27 12:48:38;;;;;;;11.00;2.60;;;8.20;99.90;;;;;;4935545;29;20055;-54
2021/03/27 12:51:27;;;;;;;12.88;2.05;;;8.20;99.90;;;;;;4935392;29;20044;-55
2021/03/27 12:54:02;;;;;;;15.65;2.08;;;8.10;99.90;;;;;;4935437;29;20695;-55
2021/03/27 12:56:43;;;;;;;8.90;2.05;;;8.00;99.90;;;;;;4935566;29;20043;-54
2021/03/27 12:59:28;;;;;;;11.98;2.42;;;7.90;99.90;;;;;;4935342;29;20048;-55
2021/03/27 13:02:15;;;;;;;10.27;3.30;;;7.90;99.90;;;;;;4935422;29;20186;-55
2021/03/27 13:05:17;;;;;;;13.18;2.30;;;7.90;99.90;;;;;;4935647;29;20055;-55
2021/03/27 13:07:56;;;;;;;14.40;3.40;;;8.20;99.90;;;;;;4935206;29;20498;-55
2021/03/27 13:10:25;;;;;;;15.40;2.97;;;8.20;99.90;;;;;;4935129;29;20538;-54
2021/03/27 13:13:18;;;;;;;19.40;3.80;;;8.10;99.90;;;;;;4951515;28;20047;-55
2021/03/27 13:16:04;;;;;;;15.88;3.28;;;7.80;99.90;;;;;;4973668;28;20047;-55
2021/03/27 13:18:48;;;;;;;13.23;2.83;;;7.60;99.90;;;;;;5050974;28;20491;-55
2021/03/27 13:21:18;;;;;;;16.88;3.05;;;7.90;99.90;;;;;;5135254;27;20047;-55
2021/03/27 13:24:06;;;;;;;17.80;3.00;;;8.00;99.90;;;;;;5156180;27;20139;-55
2021/03/27 13:26:33;;;;;;;23.40;3.58;;;8.00;99.90;;;;;;5156087;27;20507;-55
2021/03/27 13:29:35;;;;;;;19.42;3.28;;;7.90;99.90;;;;;;5155996;27;20107;-55
2021/03/27 13:32:16;;;;;;;14.95;2.50;;;7.80;99.90;;;;;;5156063;27;20046;-56
2021/03/27 13:35:04;;;;;;;15.15;2.80;;;7.80;99.90;;;;;;5155881;27;20034;-55
2021/03/27 13:38:02;;;;;;;11.70;3.15;;;7.90;99.90;;;;;;5155759;27;20041;-55
2021/03/27 13:40:31;;;;;;;13.82;2.42;;;7.90;99.90;;;;;;5156050;27;20042;-55
2021/03/27 13:43:09;;;;;;;;;;;7.70;99.90;;;;;;5156510;27;20042;-55
2021/03/27 13:45:57;;;;;;;12.05;2.45;;;7.30;99.90;;;;;;5172766;27;19938;-55
2021/03/27 13:48:29;;;;;;;8.35;2.10;;;7.10;99.90;;;;;;5155150;27;20391;-56
2021/03/27 13:51:13;;;;;;;11.45;3.28;;;7.10;99.90;;;;;;5155387;27;20046;-55
2021/03/27 13:54:11;;;;;;;6.10;1.77;;;7.20;99.90;;;;;;5155921;27;20038;-55
2021/03/27 13:57:13;;;;;;;10.65;1.83;;;7.40;99.90;;;;;;5071658;28;20052;-55
2021/03/27 13:59:42;;;;;;;8.40;2.05;;;7.60;99.90;;;;;;5071403;28;20056;-55
2021/03/27 14:02:21;;;;;;;10.55;2.03;;;8.10;99.90;;;;;;5071537;28;20037;-55
2021/03/27 14:05:03;;;;;;;10.85;2.42;;;8.20;99.90;;;;;;5071281;28;20423;-55
2021/03/27 14:07:38;;;;;;;11.38;1.85;;;8.50;99.90;;;;;;5071433;28;20123;-55
2021/03/27 14:10:31;;;;;;;7.35;1.88;;;8.40;99.90;;;;;;5071258;28;20044;-55
2021/03/27 14:13:02;;;;;;;6.60;1.50;;;8.50;99.90;;;;;;5071091;28;20059;-55
2021/03/27 14:15:35;;;;;;;8.98;2.47;;;8.50;99.90;;;;;;5071296;28;20075;-55
2021/03/27 14:18:07;;;;;;;12.25;2.80;;;8.40;99.90;;;;;;5070932;28;20051;-55
2021/03/27 14:20:32;;;;;;;15.93;2.58;;;8.60;99.90;;;;;;5071101;28;20123;-55
2021/03/27 14:23:19;;;;;;;11.25;2.10;;;8.90;99.90;;;;;;5070859;28;20147;-56
2021/03/27 14:25:51;;;;;;;12.88;2.28;;;8.70;99.90;;;;;;5071051;28;20060;-55
2021/03/27 14:28:34;;;;;;;18.10;4.63;;;8.60;99.90;;;;;;5071002;28;20045;-55